sensor_id;sensor_type;location;lat;lon;timestamp;P1;durP1;ratioP1;P2;durP2;ratioP2
10511;SDS011;5304;48.604;2.096;2023-06-04T00:00:31;7.77;;;3.83;;
10511;SDS011;5304;48.604;2.096;2023-06-04T00:03:15;6.33;;;3.40;;
10511;SDS011;5304;48.604;2.096;2023-06-04T00:06:00;8.10;;;3.70;;
10511;SDS011;5304;48.604;2.096;2023-06-04T00:08:44;4.63;;;3.47;;
10511;SDS011;5304;48.604;2.096;2023-06-04T00:11:29;5.33;;;3.50;;
10511;SDS011;5304;48.604;2.096;2023-06-04T00:14:13;6.67;;;3.47;;
10511;SDS011;5304;48.604;2.096;2023-06-04T00:16:59;8.20;;;3.53;;
10511;SDS011;5304;48.604;2.096;2023-06-04T00:19:43;6.37;;;3.90;;
10511;SDS011;5304;48.604;2.096;2023-06-04T00:22:27;5.37;;;3.77;;
10511;SDS011;5304;48.604;2.096;2023-06-04T00:25:12;8.20;;;3.60;;
10511;SDS011;5304;48.604;2.096;2023-06-04T00:27:56;6.10;;;4.20;;
10511;SDS011;5304;48.604;2.096;2023-06-04T00:30:41;6.80;;;4.00;;
10511;SDS011;5304;48.604;2.096;2023-06-04T00:33:25;6.87;;;3.30;;
10511;SDS011;5304;48.604;2.096;2023-06-04T00:36:09;6.67;;;3.67;;
10511;SDS011;5304;48.604;2.096;2023-06-04T00:38:54;4.90;;;3.87;;
10511;SDS011;5304;48.604;2.096;2023-06-04T00:41:38;11.43;;;4.13;;
10511;SDS011;5304;48.604;2.096;2023-06-04T00:44:23;3.80;;;3.17;;
10511;SDS011;5304;48.604;2.096;2023-06-04T00:47:08;4.17;;;3.00;;
10511;SDS011;5304;48.604;2.096;2023-06-04T00:49:56;4.53;;;3.70;;
10511;SDS011;5304;48.604;2.096;2023-06-04T00:52:41;4.53;;;3.40;;
10511;SDS011;5304;48.604;2.096;2023-06-04T00:55:25;8.07;;;3.20;;
10511;SDS011;5304;48.604;2.096;2023-06-04T00:58:10;6.97;;;3.70;;
10511;SDS011;5304;48.604;2.096;2023-06-04T01:00:55;4.33;;;3.10;;
10511;SDS011;5304;48.604;2.096;2023-06-04T01:03:45;6.60;;;3.70;;
10511;SDS011;5304;48.604;2.096;2023-06-04T01:06:39;4.60;;;3.00;;
10511;SDS011;5304;48.604;2.096;2023-06-04T01:09:31;4.13;;;2.80;;
10511;SDS011;5304;48.604;2.096;2023-06-04T01:12:17;5.17;;;3.00;;
10511;SDS011;5304;48.604;2.096;2023-06-04T01:15:01;7.53;;;3.20;;
10511;SDS011;5304;48.604;2.096;2023-06-04T01:17:49;7.67;;;3.00;;
10511;SDS011;5304;48.604;2.096;2023-06-04T01:20:41;4.67;;;3.40;;
10511;SDS011;5304;48.604;2.096;2023-06-04T01:26:27;4.63;;;3.33;;
10511;SDS011;5304;48.604;2.096;2023-06-04T01:29:14;3.77;;;3.00;;
10511;SDS011;5304;48.604;2.096;2023-06-04T01:31:59;4.57;;;2.93;;
10511;SDS011;5304;48.604;2.096;2023-06-04T01:34:44;3.10;;;2.77;;
10511;SDS011;5304;48.604;2.096;2023-06-04T01:37:29;5.93;;;3.07;;
10511;SDS011;5304;48.604;2.096;2023-06-04T01:40:13;4.50;;;3.13;;
10511;SDS011;5304;48.604;2.096;2023-06-04T01:42:59;4.67;;;2.90;;
10511;SDS011;5304;48.604;2.096;2023-06-04T01:45:43;3.47;;;3.17;;
10511;SDS011;5304;48.604;2.096;2023-06-04T01:48:27;5.40;;;3.10;;
10511;SDS011;5304;48.604;2.096;2023-06-04T01:51:12;3.70;;;2.83;;
10511;SDS011;5304;48.604;2.096;2023-06-04T01:53:56;5.03;;;3.00;;
10511;SDS011;5304;48.604;2.096;2023-06-04T01:56:40;4.07;;;2.70;;
10511;SDS011;5304;48.604;2.096;2023-06-04T01:59:25;3.47;;;2.67;;
10511;SDS011;5304;48.604;2.096;2023-06-04T02:02:11;5.67;;;3.03;;
10511;SDS011;5304;48.604;2.096;2023-06-04T02:04:55;5.40;;;3.10;;
10511;SDS011;5304;48.604;2.096;2023-06-04T02:07:40;6.37;;;3.27;;
10511;SDS011;5304;48.604;2.096;2023-06-04T02:10:26;3.90;;;2.80;;
10511;SDS011;5304;48.604;2.096;2023-06-04T02:13:10;3.30;;;2.80;;
10511;SDS011;5304;48.604;2.096;2023-06-04T02:15:55;4.17;;;2.70;;
10511;SDS011;5304;48.604;2.096;2023-06-04T02:18:39;3.10;;;2.80;;
10511;SDS011;5304;48.604;2.096;2023-06-04T02:21:24;6.60;;;2.60;;
10511;SDS011;5304;48.604;2.096;2023-06-04T02:24:08;5.03;;;2.80;;
10511;SDS011;5304;48.604;2.096;2023-06-04T02:26:53;5.27;;;3.13;;
10511;SDS011;5304;48.604;2.096;2023-06-04T02:29:40;3.70;;;2.90;;
10511;SDS011;5304;48.604;2.096;2023-06-04T02:32:25;4.37;;;3.00;;
10511;SDS011;5304;48.604;2.096;2023-06-04T02:35:09;6.47;;;2.83;;
10511;SDS011;5304;48.604;2.096;2023-06-04T02:37:54;3.70;;;2.73;;
10511;SDS011;5304;48.604;2.096;2023-06-04T02:40:42;4.30;;;3.13;;
10511;SDS011;5304;48.604;2.096;2023-06-04T02:43:27;6.33;;;3.17;;
10511;SDS011;5304;48.604;2.096;2023-06-04T02:46:12;5.00;;;3.00;;
10511;SDS011;5304;48.604;2.096;2023-06-04T02:48:56;4.43;;;3.27;;
10511;SDS011;5304;48.604;2.096;2023-06-04T02:51:41;5.60;;;3.23;;
10511;SDS011;5304;48.604;2.096;2023-06-04T02:54:25;4.33;;;3.00;;
10511;SDS011;5304;48.604;2.096;2023-06-04T02:57:10;4.07;;;2.70;;
10511;SDS011;5304;48.604;2.096;2023-06-04T02:59:55;5.30;;;3.40;;
10511;SDS011;5304;48.604;2.096;2023-06-04T03:02:40;3.50;;;3.17;;
10511;SDS011;5304;48.604;2.096;2023-06-04T03:05:25;3.73;;;2.80;;
10511;SDS011;5304;48.604;2.096;2023-06-04T03:08:10;6.10;;;3.20;;
10511;SDS011;5304;48.604;2.096;2023-06-04T03:10:54;4.23;;;2.90;;
10511;SDS011;5304;48.604;2.096;2023-06-04T03:13:38;4.40;;;2.93;;
10511;SDS011;5304;48.604;2.096;2023-06-04T03:16:24;8.17;;;3.30;;
10511;SDS011;5304;48.604;2.096;2023-06-04T03:19:10;4.37;;;2.83;;
10511;SDS011;5304;48.604;2.096;2023-06-04T03:21:55;6.80;;;3.27;;
10511;SDS011;5304;48.604;2.096;2023-06-04T03:24:40;4.43;;;3.00;;
10511;SDS011;5304;48.604;2.096;2023-06-04T03:27:25;6.83;;;2.97;;
10511;SDS011;5304;48.604;2.096;2023-06-04T03:30:10;4.13;;;2.70;;
10511;SDS011;5304;48.604;2.096;2023-06-04T03:32:54;5.87;;;3.03;;
10511;SDS011;5304;48.604;2.096;2023-06-04T03:35:41;3.33;;;2.90;;
10511;SDS011;5304;48.604;2.096;2023-06-04T03:38:26;4.10;;;2.93;;
10511;SDS011;5304;48.604;2.096;2023-06-04T03:41:11;4.20;;;2.73;;
10511;SDS011;5304;48.604;2.096;2023-06-04T03:43:56;4.07;;;2.83;;
10511;SDS011;5304;48.604;2.096;2023-06-04T03:46:41;3.10;;;2.80;;
10511;SDS011;5304;48.604;2.096;2023-06-04T03:49:28;4.23;;;3.03;;
10511;SDS011;5304;48.604;2.096;2023-06-04T03:52:13;4.70;;;2.63;;
10511;SDS011;5304;48.604;2.096;2023-06-04T03:54:58;5.33;;;3.27;;
10511;SDS011;5304;48.604;2.096;2023-06-04T03:57:42;5.70;;;2.93;;
10511;SDS011;5304;48.604;2.096;2023-06-04T04:00:27;7.50;;;3.10;;
10511;SDS011;5304;48.604;2.096;2023-06-04T04:03:12;4.70;;;2.70;;
10511;SDS011;5304;48.604;2.096;2023-06-04T04:05:57;5.17;;;3.10;;
10511;SDS011;5304;48.604;2.096;2023-06-04T04:08:42;4.30;;;2.67;;
10511;SDS011;5304;48.604;2.096;2023-06-04T04:11:27;3.03;;;2.53;;
10511;SDS011;5304;48.604;2.096;2023-06-04T04:14:12;4.47;;;2.90;;
10511;SDS011;5304;48.604;2.096;2023-06-04T04:16:56;5.90;;;2.87;;
10511;SDS011;5304;48.604;2.096;2023-06-04T04:19:40;3.87;;;2.80;;
10511;SDS011;5304;48.604;2.096;2023-06-04T04:22:25;6.57;;;2.50;;
10511;SDS011;5304;48.604;2.096;2023-06-04T04:25:10;3.70;;;2.87;;
10511;SDS011;5304;48.604;2.096;2023-06-04T04:27:55;5.97;;;2.80;;
10511;SDS011;5304;48.604;2.096;2023-06-04T04:30:40;5.47;;;2.50;;
10511;SDS011;5304;48.604;2.096;2023-06-04T04:33:25;5.53;;;2.37;;
10511;SDS011;5304;48.604;2.096;2023-06-04T04:36:10;3.30;;;2.57;;
10511;SDS011;5304;48.604;2.096;2023-06-04T04:38:56;4.70;;;2.50;;
10511;SDS011;5304;48.604;2.096;2023-06-04T04:41:42;5.40;;;2.70;;
10511;SDS011;5304;48.604;2.096;2023-06-04T04:44:26;6.03;;;2.53;;
10511;SDS011;5304;48.604;2.096;2023-06-04T04:47:11;4.67;;;3.10;;
10511;SDS011;5304;48.604;2.096;2023-06-04T04:49:56;3.43;;;2.70;;
10511;SDS011;5304;48.604;2.096;2023-06-04T04:52:41;4.17;;;2.70;;
10511;SDS011;5304;48.604;2.096;2023-06-04T04:55:25;3.90;;;2.23;;
10511;SDS011;5304;48.604;2.096;2023-06-04T04:58:10;3.90;;;2.33;;
10511;SDS011;5304;48.604;2.096;2023-06-04T05:00:55;4.70;;;2.70;;
10511;SDS011;5304;48.604;2.096;2023-06-04T05:03:39;3.30;;;2.53;;
10511;SDS011;5304;48.604;2.096;2023-06-04T05:06:23;6.00;;;2.50;;
10511;SDS011;5304;48.604;2.096;2023-06-04T05:09:08;4.63;;;2.80;;
10511;SDS011;5304;48.604;2.096;2023-06-04T05:11:53;5.00;;;2.60;;
10511;SDS011;5304;48.604;2.096;2023-06-04T05:14:38;3.97;;;2.40;;
10511;SDS011;5304;48.604;2.096;2023-06-04T05:17:23;4.73;;;2.43;;
10511;SDS011;5304;48.604;2.096;2023-06-04T05:20:14;3.73;;;2.90;;
10511;SDS011;5304;48.604;2.096;2023-06-04T05:22:59;3.33;;;2.30;;
10511;SDS011;5304;48.604;2.096;2023-06-04T05:25:44;4.30;;;2.50;;
10511;SDS011;5304;48.604;2.096;2023-06-04T05:28:28;2.83;;;2.30;;
10511;SDS011;5304;48.604;2.096;2023-06-04T05:31:13;6.13;;;2.80;;
10511;SDS011;5304;48.604;2.096;2023-06-04T05:33:59;4.40;;;2.53;;
10511;SDS011;5304;48.604;2.096;2023-06-04T05:36:45;3.10;;;2.70;;
10511;SDS011;5304;48.604;2.096;2023-06-04T05:39:29;4.47;;;2.37;;
10511;SDS011;5304;48.604;2.096;2023-06-04T05:42:13;3.77;;;2.27;;
10511;SDS011;5304;48.604;2.096;2023-06-04T05:44:58;4.93;;;2.73;;
10511;SDS011;5304;48.604;2.096;2023-06-04T05:47:43;5.23;;;2.40;;
10511;SDS011;5304;48.604;2.096;2023-06-04T05:50:28;5.40;;;2.80;;
10511;SDS011;5304;48.604;2.096;2023-06-04T05:53:12;4.33;;;2.70;;
10511;SDS011;5304;48.604;2.096;2023-06-04T05:55:57;5.27;;;2.50;;
10511;SDS011;5304;48.604;2.096;2023-06-04T05:58:41;3.70;;;2.40;;
10511;SDS011;5304;48.604;2.096;2023-06-04T06:01:26;3.30;;;2.40;;
10511;SDS011;5304;48.604;2.096;2023-06-04T06:04:11;2.70;;;2.23;;
10511;SDS011;5304;48.604;2.096;2023-06-04T06:06:56;2.50;;;2.27;;
10511;SDS011;5304;48.604;2.096;2023-06-04T06:09:41;3.83;;;2.30;;
10511;SDS011;5304;48.604;2.096;2023-06-04T06:12:25;6.33;;;2.20;;
10511;SDS011;5304;48.604;2.096;2023-06-04T06:15:11;4.80;;;2.37;;
10511;SDS011;5304;48.604;2.096;2023-06-04T06:17:55;6.63;;;2.20;;
10511;SDS011;5304;48.604;2.096;2023-06-04T06:20:40;3.80;;;2.47;;
10511;SDS011;5304;48.604;2.096;2023-06-04T06:23:24;3.53;;;2.07;;
10511;SDS011;5304;48.604;2.096;2023-06-04T06:26:09;4.10;;;2.40;;
10511;SDS011;5304;48.604;2.096;2023-06-04T06:28:53;3.77;;;2.37;;
10511;SDS011;5304;48.604;2.096;2023-06-04T06:31:37;5.37;;;2.40;;
10511;SDS011;5304;48.604;2.096;2023-06-04T06:34:22;4.00;;;2.17;;
10511;SDS011;5304;48.604;2.096;2023-06-04T06:37:07;3.07;;;2.10;;
10511;SDS011;5304;48.604;2.096;2023-06-04T06:39:51;5.90;;;2.30;;
10511;SDS011;5304;48.604;2.096;2023-06-04T06:42:35;2.53;;;2.30;;
10511;SDS011;5304;48.604;2.096;2023-06-04T06:45:20;4.73;;;2.20;;
10511;SDS011;5304;48.604;2.096;2023-06-04T06:48:05;4.78;;;2.33;;
10511;SDS011;5304;48.604;2.096;2023-06-04T06:50:49;7.57;;;2.57;;
10511;SDS011;5304;48.604;2.096;2023-06-04T06:53:34;4.70;;;2.30;;
10511;SDS011;5304;48.604;2.096;2023-06-04T06:56:18;3.03;;;2.33;;
10511;SDS011;5304;48.604;2.096;2023-06-04T06:59:03;4.90;;;2.38;;
10511;SDS011;5304;48.604;2.096;2023-06-04T07:01:47;2.42;;;2.10;;
10511;SDS011;5304;48.604;2.096;2023-06-04T07:04:32;3.58;;;2.28;;
10511;SDS011;5304;48.604;2.096;2023-06-04T07:07:17;4.90;;;2.30;;
10511;SDS011;5304;48.604;2.096;2023-06-04T07:10:01;3.50;;;2.70;;
10511;SDS011;5304;48.604;2.096;2023-06-04T07:12:47;2.65;;;2.00;;
10511;SDS011;5304;48.604;2.096;2023-06-04T07:15:32;6.63;;;2.47;;
10511;SDS011;5304;48.604;2.096;2023-06-04T07:18:16;2.25;;;2.05;;
10511;SDS011;5304;48.604;2.096;2023-06-04T07:21:00;4.40;;;2.53;;
10511;SDS011;5304;48.604;2.096;2023-06-04T07:23:45;2.55;;;2.15;;
10511;SDS011;5304;48.604;2.096;2023-06-04T07:26:33;3.22;;;2.30;;
10511;SDS011;5304;48.604;2.096;2023-06-04T07:29:17;6.75;;;2.70;;
10511;SDS011;5304;48.604;2.096;2023-06-04T07:32:02;8.27;;;2.40;;
10511;SDS011;5304;48.604;2.096;2023-06-04T07:34:46;5.63;;;2.30;;
10511;SDS011;5304;48.604;2.096;2023-06-04T07:37:31;4.35;;;2.30;;
10511;SDS011;5304;48.604;2.096;2023-06-04T07:40:16;3.03;;;2.03;;
10511;SDS011;5304;48.604;2.096;2023-06-04T07:43:00;3.60;;;2.30;;
10511;SDS011;5304;48.604;2.096;2023-06-04T07:45:45;3.85;;;2.20;;
10511;SDS011;5304;48.604;2.096;2023-06-04T07:48:30;4.20;;;1.95;;
10511;SDS011;5304;48.604;2.096;2023-06-04T07:51:15;3.97;;;1.88;;
10511;SDS011;5304;48.604;2.096;2023-06-04T07:54:00;5.25;;;2.42;;
10511;SDS011;5304;48.604;2.096;2023-06-04T07:56:45;3.63;;;2.40;;
10511;SDS011;5304;48.604;2.096;2023-06-04T07:59:30;5.25;;;2.35;;
10511;SDS011;5304;48.604;2.096;2023-06-04T08:02:14;5.47;;;2.28;;
10511;SDS011;5304;48.604;2.096;2023-06-04T08:04:59;3.85;;;2.13;;
10511;SDS011;5304;48.604;2.096;2023-06-04T08:07:46;3.10;;;2.28;;
10511;SDS011;5304;48.604;2.096;2023-06-04T08:10:31;2.88;;;2.40;;
10511;SDS011;5304;48.604;2.096;2023-06-04T08:13:15;3.42;;;2.42;;
10511;SDS011;5304;48.604;2.096;2023-06-04T08:15:59;3.88;;;2.17;;
10511;SDS011;5304;48.604;2.096;2023-06-04T08:18:44;6.28;;;2.10;;
10511;SDS011;5304;48.604;2.096;2023-06-04T08:21:28;6.15;;;2.20;;
10511;SDS011;5304;48.604;2.096;2023-06-04T08:24:13;3.63;;;2.00;;
10511;SDS011;5304;48.604;2.096;2023-06-04T08:26:57;3.72;;;2.40;;
10511;SDS011;5304;48.604;2.096;2023-06-04T08:29:41;5.40;;;2.30;;
10511;SDS011;5304;48.604;2.096;2023-06-04T08:32:28;5.75;;;2.10;;
10511;SDS011;5304;48.604;2.096;2023-06-04T08:35:12;2.58;;;2.10;;
10511;SDS011;5304;48.604;2.096;2023-06-04T08:37:57;3.35;;;2.10;;
10511;SDS011;5304;48.604;2.096;2023-06-04T08:40:42;3.47;;;2.20;;
10511;SDS011;5304;48.604;2.096;2023-06-04T08:43:28;2.60;;;2.15;;
10511;SDS011;5304;48.604;2.096;2023-06-04T08:46:15;3.15;;;2.40;;
10511;SDS011;5304;48.604;2.096;2023-06-04T08:49:01;5.70;;;2.55;;
10511;SDS011;5304;48.604;2.096;2023-06-04T08:51:46;5.22;;;2.33;;
10511;SDS011;5304;48.604;2.096;2023-06-04T08:54:32;4.70;;;2.17;;
10511;SDS011;5304;48.604;2.096;2023-06-04T08:57:19;4.75;;;2.53;;
10511;SDS011;5304;48.604;2.096;2023-06-04T09:00:04;4.32;;;2.45;;
10511;SDS011;5304;48.604;2.096;2023-06-04T09:02:51;2.63;;;2.10;;
10511;SDS011;5304;48.604;2.096;2023-06-04T09:05:36;5.53;;;2.65;;
10511;SDS011;5304;48.604;2.096;2023-06-04T09:08:22;5.72;;;2.47;;
10511;SDS011;5304;48.604;2.096;2023-06-04T09:11:11;2.97;;;2.70;;
10511;SDS011;5304;48.604;2.096;2023-06-04T09:13:59;3.58;;;2.35;;
10511;SDS011;5304;48.604;2.096;2023-06-04T09:16:48;5.05;;;2.60;;
10511;SDS011;5304;48.604;2.096;2023-06-04T09:19:33;6.57;;;2.33;;
10511;SDS011;5304;48.604;2.096;2023-06-04T09:22:18;4.00;;;2.03;;
10511;SDS011;5304;48.604;2.096;2023-06-04T09:25:03;3.58;;;2.20;;
10511;SDS011;5304;48.604;2.096;2023-06-04T09:27:52;4.45;;;2.30;;
10511;SDS011;5304;48.604;2.096;2023-06-04T09:30:50;4.32;;;2.38;;
10511;SDS011;5304;48.604;2.096;2023-06-04T09:33:45;2.50;;;2.30;;
10511;SDS011;5304;48.604;2.096;2023-06-04T09:36:33;3.30;;;2.58;;
10511;SDS011;5304;48.604;2.096;2023-06-04T09:39:19;9.13;;;2.53;;
10511;SDS011;5304;48.604;2.096;2023-06-04T09:42:04;4.32;;;2.92;;
10511;SDS011;5304;48.604;2.096;2023-06-04T09:44:49;4.60;;;2.22;;
10511;SDS011;5304;48.604;2.096;2023-06-04T09:47:41;4.03;;;2.00;;
10511;SDS011;5304;48.604;2.096;2023-06-04T09:50:27;3.70;;;2.17;;
10511;SDS011;5304;48.604;2.096;2023-06-04T09:53:20;6.38;;;2.20;;
10511;SDS011;5304;48.604;2.096;2023-06-04T09:56:10;3.00;;;2.33;;
10511;SDS011;5304;48.604;2.096;2023-06-04T09:58:58;5.43;;;2.25;;
10511;SDS011;5304;48.604;2.096;2023-06-04T10:01:46;3.47;;;2.15;;
10511;SDS011;5304;48.604;2.096;2023-06-04T10:04:31;4.32;;;1.98;;
10511;SDS011;5304;48.604;2.096;2023-06-04T10:07:19;3.63;;;2.10;;
10511;SDS011;5304;48.604;2.096;2023-06-04T10:10:04;3.08;;;2.20;;
10511;SDS011;5304;48.604;2.096;2023-06-04T10:12:50;3.35;;;2.10;;
10511;SDS011;5304;48.604;2.096;2023-06-04T10:15:44;3.33;;;1.90;;
10511;SDS011;5304;48.604;2.096;2023-06-04T10:18:30;3.33;;;2.30;;
10511;SDS011;5304;48.604;2.096;2023-06-04T10:21:15;4.43;;;2.13;;
10511;SDS011;5304;48.604;2.096;2023-06-04T10:24:02;2.25;;;1.90;;
10511;SDS011;5304;48.604;2.096;2023-06-04T10:26:47;3.22;;;2.00;;
10511;SDS011;5304;48.604;2.096;2023-06-04T10:29:32;5.25;;;2.20;;
10511;SDS011;5304;48.604;2.096;2023-06-04T10:32:16;2.55;;;1.90;;
10511;SDS011;5304;48.604;2.096;2023-06-04T10:35:04;3.45;;;1.90;;
10511;SDS011;5304;48.604;2.096;2023-06-04T10:37:51;3.20;;;2.17;;
10511;SDS011;5304;48.604;2.096;2023-06-04T10:40:40;2.30;;;2.10;;
10511;SDS011;5304;48.604;2.096;2023-06-04T10:43:29;3.45;;;2.10;;
10511;SDS011;5304;48.604;2.096;2023-06-04T10:46:18;2.65;;;2.00;;
10511;SDS011;5304;48.604;2.096;2023-06-04T10:49:03;3.72;;;2.55;;
10511;SDS011;5304;48.604;2.096;2023-06-04T10:51:47;7.85;;;2.10;;
10511;SDS011;5304;48.604;2.096;2023-06-04T10:54:32;3.72;;;2.33;;
10511;SDS011;5304;48.604;2.096;2023-06-04T10:57:19;3.03;;;2.40;;
10511;SDS011;5304;48.604;2.096;2023-06-04T11:00:03;4.18;;;2.30;;
10511;SDS011;5304;48.604;2.096;2023-06-04T11:02:56;3.22;;;2.20;;
10511;SDS011;5304;48.604;2.096;2023-06-04T11:05:44;3.47;;;1.88;;
10511;SDS011;5304;48.604;2.096;2023-06-04T11:08:29;5.50;;;2.30;;
10511;SDS011;5304;48.604;2.096;2023-06-04T11:11:14;4.45;;;2.20;;
10511;SDS011;5304;48.604;2.096;2023-06-04T11:14:12;5.60;;;2.25;;
10511;SDS011;5304;48.604;2.096;2023-06-04T11:16:56;6.20;;;2.22;;
10511;SDS011;5304;48.604;2.096;2023-06-04T11:19:41;3.45;;;2.50;;
10511;SDS011;5304;48.604;2.096;2023-06-04T11:22:25;2.30;;;2.10;;
10511;SDS011;5304;48.604;2.096;2023-06-04T11:25:09;2.75;;;2.22;;
10511;SDS011;5304;48.604;2.096;2023-06-04T11:27:54;3.47;;;2.20;;
10511;SDS011;5304;48.604;2.096;2023-06-04T11:30:40;2.25;;;2.00;;
10511;SDS011;5304;48.604;2.096;2023-06-04T11:33:24;6.47;;;2.45;;
10511;SDS011;5304;48.604;2.096;2023-06-04T11:36:09;3.65;;;2.45;;
10511;SDS011;5304;48.604;2.096;2023-06-04T11:39:03;2.97;;;2.17;;
10511;SDS011;5304;48.604;2.096;2023-06-04T11:41:50;3.25;;;2.40;;
10511;SDS011;5304;48.604;2.096;2023-06-04T11:44:35;2.83;;;2.03;;
10511;SDS011;5304;48.604;2.096;2023-06-04T11:47:19;3.15;;;2.13;;
10511;SDS011;5304;48.604;2.096;2023-06-04T11:50:04;3.72;;;2.28;;
10511;SDS011;5304;48.604;2.096;2023-06-04T11:52:51;2.63;;;2.35;;
10511;SDS011;5304;48.604;2.096;2023-06-04T11:55:37;3.47;;;2.35;;
10511;SDS011;5304;48.604;2.096;2023-06-04T11:58:22;4.40;;;2.20;;
10511;SDS011;5304;48.604;2.096;2023-06-04T12:01:08;3.13;;;2.00;;
10511;SDS011;5304;48.604;2.096;2023-06-04T12:03:53;2.70;;;2.17;;
10511;SDS011;5304;48.604;2.096;2023-06-04T12:06:38;3.38;;;2.50;;
10511;SDS011;5304;48.604;2.096;2023-06-04T12:09:33;4.05;;;2.38;;
10511;SDS011;5304;48.604;2.096;2023-06-04T12:12:24;5.15;;;2.47;;
10511;SDS011;5304;48.604;2.096;2023-06-04T12:15:09;3.30;;;2.42;;
10511;SDS011;5304;48.604;2.096;2023-06-04T12:17:54;5.38;;;2.40;;
10511;SDS011;5304;48.604;2.096;2023-06-04T12:20:39;3.55;;;2.20;;
10511;SDS011;5304;48.604;2.096;2023-06-04T12:23:26;5.97;;;2.28;;
10511;SDS011;5304;48.604;2.096;2023-06-04T12:26:19;3.20;;;2.45;;
10511;SDS011;5304;48.604;2.096;2023-06-04T12:29:13;4.32;;;2.30;;
10511;SDS011;5304;48.604;2.096;2023-06-04T12:32:05;3.58;;;2.80;;
10511;SDS011;5304;48.604;2.096;2023-06-04T12:34:52;3.17;;;2.38;;
10511;SDS011;5304;48.604;2.096;2023-06-04T12:37:36;3.70;;;2.80;;
10511;SDS011;5304;48.604;2.096;2023-06-04T12:40:21;5.38;;;2.45;;
10511;SDS011;5304;48.604;2.096;2023-06-04T12:43:05;4.25;;;2.28;;
10511;SDS011;5304;48.604;2.096;2023-06-04T12:45:50;3.05;;;2.22;;
10511;SDS011;5304;48.604;2.096;2023-06-04T12:48:35;3.83;;;2.80;;
10511;SDS011;5304;48.604;2.096;2023-06-04T12:51:19;3.97;;;2.53;;
10511;SDS011;5304;48.604;2.096;2023-06-04T12:54:04;3.70;;;2.70;;
10511;SDS011;5304;48.604;2.096;2023-06-04T12:56:49;3.97;;;2.70;;
10511;SDS011;5304;48.604;2.096;2023-06-04T12:59:34;3.92;;;2.45;;
10511;SDS011;5304;48.604;2.096;2023-06-04T13:02:18;3.78;;;2.58;;
10511;SDS011;5304;48.604;2.096;2023-06-04T13:05:03;5.07;;;2.35;;
10511;SDS011;5304;48.604;2.096;2023-06-04T13:07:47;2.67;;;2.47;;
10511;SDS011;5304;48.604;2.096;2023-06-04T13:10:32;3.47;;;2.53;;
10511;SDS011;5304;48.604;2.096;2023-06-04T13:13:17;4.15;;;2.42;;
10511;SDS011;5304;48.604;2.096;2023-06-04T13:16:03;2.55;;;2.35;;
10511;SDS011;5304;48.604;2.096;2023-06-04T13:18:48;2.63;;;2.35;;
10511;SDS011;5304;48.604;2.096;2023-06-04T13:21:32;4.55;;;2.45;;
10511;SDS011;5304;48.604;2.096;2023-06-04T13:24:17;4.15;;;2.55;;
10511;SDS011;5304;48.604;2.096;2023-06-04T13:27:01;3.42;;;2.35;;
10511;SDS011;5304;48.604;2.096;2023-06-04T13:29:46;3.63;;;2.60;;
10511;SDS011;5304;48.604;2.096;2023-06-04T13:32:30;6.05;;;2.83;;
10511;SDS011;5304;48.604;2.096;2023-06-04T13:35:14;3.50;;;2.97;;
10511;SDS011;5304;48.604;2.096;2023-06-04T13:37:59;4.93;;;2.53;;
10511;SDS011;5304;48.604;2.096;2023-06-04T13:40:43;3.05;;;2.75;;
10511;SDS011;5304;48.604;2.096;2023-06-04T13:43:28;4.22;;;2.50;;
10511;SDS011;5304;48.604;2.096;2023-06-04T13:46:12;3.67;;;2.70;;
10511;SDS011;5304;48.604;2.096;2023-06-04T13:48:57;5.30;;;3.03;;
10511;SDS011;5304;48.604;2.096;2023-06-04T13:51:41;4.80;;;2.67;;
10511;SDS011;5304;48.604;2.096;2023-06-04T13:54:26;3.13;;;2.72;;
10511;SDS011;5304;48.604;2.096;2023-06-04T13:57:10;6.00;;;2.83;;
10511;SDS011;5304;48.604;2.096;2023-06-04T13:59:55;2.85;;;2.55;;
10511;SDS011;5304;48.604;2.096;2023-06-04T14:02:39;4.90;;;2.70;;
10511;SDS011;5304;48.604;2.096;2023-06-04T14:05:24;5.28;;;2.50;;
10511;SDS011;5304;48.604;2.096;2023-06-04T14:08:11;3.92;;;2.58;;
10511;SDS011;5304;48.604;2.096;2023-06-04T14:10:56;4.18;;;2.47;;
10511;SDS011;5304;48.604;2.096;2023-06-04T14:13:41;4.68;;;2.65;;
10511;SDS011;5304;48.604;2.096;2023-06-04T14:16:29;5.10;;;2.60;;
10511;SDS011;5304;48.604;2.096;2023-06-04T14:19:13;3.33;;;2.40;;
10511;SDS011;5304;48.604;2.096;2023-06-04T14:21:59;6.03;;;2.70;;
10511;SDS011;5304;48.604;2.096;2023-06-04T14:24:43;3.47;;;2.60;;
10511;SDS011;5304;48.604;2.096;2023-06-04T14:27:27;3.17;;;2.80;;
10511;SDS011;5304;48.604;2.096;2023-06-04T14:30:12;4.03;;;2.40;;
10511;SDS011;5304;48.604;2.096;2023-06-04T14:32:57;4.40;;;2.65;;
10511;SDS011;5304;48.604;2.096;2023-06-04T14:35:41;4.43;;;2.30;;
10511;SDS011;5304;48.604;2.096;2023-06-04T14:38:30;3.10;;;2.38;;
10511;SDS011;5304;48.604;2.096;2023-06-04T14:41:15;4.53;;;2.88;;
10511;SDS011;5304;48.604;2.096;2023-06-04T14:43:59;4.07;;;2.50;;
10511;SDS011;5304;48.604;2.096;2023-06-04T14:46:44;8.00;;;2.50;;
10511;SDS011;5304;48.604;2.096;2023-06-04T14:49:28;4.40;;;2.40;;
10511;SDS011;5304;48.604;2.096;2023-06-04T14:52:13;2.90;;;2.60;;
10511;SDS011;5304;48.604;2.096;2023-06-04T14:54:57;2.75;;;2.20;;
10511;SDS011;5304;48.604;2.096;2023-06-04T14:57:42;3.22;;;2.35;;
10511;SDS011;5304;48.604;2.096;2023-06-04T15:00:26;3.35;;;2.45;;
10511;SDS011;5304;48.604;2.096;2023-06-04T15:03:11;2.35;;;2.13;;
10511;SDS011;5304;48.604;2.096;2023-06-04T15:05:55;3.58;;;1.73;;
10511;SDS011;5304;48.604;2.096;2023-06-04T15:08:40;7.35;;;2.47;;
10511;SDS011;5304;48.604;2.096;2023-06-04T15:11:24;4.93;;;2.53;;
10511;SDS011;5304;48.604;2.096;2023-06-04T15:14:09;4.28;;;2.28;;
10511;SDS011;5304;48.604;2.096;2023-06-04T15:16:53;3.45;;;2.50;;
10511;SDS011;5304;48.604;2.096;2023-06-04T15:19:38;6.85;;;2.40;;
10511;SDS011;5304;48.604;2.096;2023-06-04T15:22:22;3.97;;;2.20;;
10511;SDS011;5304;48.604;2.096;2023-06-04T15:25:07;2.95;;;2.05;;
10511;SDS011;5304;48.604;2.096;2023-06-04T15:27:52;2.58;;;2.30;;
10511;SDS011;5304;48.604;2.096;2023-06-04T15:30:36;2.70;;;2.47;;
10511;SDS011;5304;48.604;2.096;2023-06-04T15:33:20;4.30;;;2.30;;
10511;SDS011;5304;48.604;2.096;2023-06-04T15:36:05;4.43;;;2.45;;
10511;SDS011;5304;48.604;2.096;2023-06-04T15:38:49;4.07;;;2.45;;
10511;SDS011;5304;48.604;2.096;2023-06-04T15:41:34;4.18;;;2.25;;
10511;SDS011;5304;48.604;2.096;2023-06-04T15:44:18;3.28;;;2.30;;
10511;SDS011;5304;48.604;2.096;2023-06-04T15:47:03;2.90;;;2.30;;
10511;SDS011;5304;48.604;2.096;2023-06-04T15:49:47;2.55;;;2.33;;
10511;SDS011;5304;48.604;2.096;2023-06-04T15:52:32;2.80;;;2.50;;
10511;SDS011;5304;48.604;2.096;2023-06-04T15:55:17;2.70;;;2.13;;
10511;SDS011;5304;48.604;2.096;2023-06-04T15:58:01;2.67;;;2.00;;
10511;SDS011;5304;48.604;2.096;2023-06-04T16:00:46;4.20;;;2.58;;
10511;SDS011;5304;48.604;2.096;2023-06-04T16:03:30;2.78;;;2.00;;
10511;SDS011;5304;48.604;2.096;2023-06-04T16:06:14;2.50;;;2.00;;
10511;SDS011;5304;48.604;2.096;2023-06-04T16:08:58;2.47;;;2.00;;
10511;SDS011;5304;48.604;2.096;2023-06-04T16:11:43;2.47;;;2.08;;
10511;SDS011;5304;48.604;2.096;2023-06-04T16:14:28;2.50;;;2.22;;
10511;SDS011;5304;48.604;2.096;2023-06-04T16:17:12;3.70;;;2.58;;
10511;SDS011;5304;48.604;2.096;2023-06-04T16:19:56;3.25;;;2.35;;
10511;SDS011;5304;48.604;2.096;2023-06-04T16:22:40;2.75;;;2.45;;
10511;SDS011;5304;48.604;2.096;2023-06-04T16:25:25;2.60;;;2.40;;
10511;SDS011;5304;48.604;2.096;2023-06-04T16:28:09;2.28;;;2.10;;
10511;SDS011;5304;48.604;2.096;2023-06-04T16:30:55;2.45;;;2.25;;
10511;SDS011;5304;48.604;2.096;2023-06-04T16:33:40;3.05;;;2.38;;
10511;SDS011;5304;48.604;2.096;2023-06-04T16:36:25;3.67;;;2.42;;
10511;SDS011;5304;48.604;2.096;2023-06-04T16:39:11;3.90;;;2.30;;
10511;SDS011;5304;48.604;2.096;2023-06-04T16:41:55;2.60;;;2.40;;
10511;SDS011;5304;48.604;2.096;2023-06-04T16:44:44;3.63;;;2.30;;
10511;SDS011;5304;48.604;2.096;2023-06-04T16:47:29;3.58;;;2.30;;
10511;SDS011;5304;48.604;2.096;2023-06-04T16:50:14;3.22;;;2.38;;
10511;SDS011;5304;48.604;2.096;2023-06-04T16:52:59;6.72;;;2.60;;